Time;durP1;ratioP1;P1;durP2;ratioP2;P2;SDS_P1;SDS_P2;PMS_P1;PMS_P2;Temp;Humidity;BMP_temperature;BMP_pressure;BME280_temperature;BME280_humidity;BME280_pressure;Samples;Min_cycle;Max_cycle;Signal;HPM_P1;HPM_P2
2023/01/17 03:01:58;;;;;;;9.13;8.63;;;2.90;99.90;;;;;;5450743;23;20265;-78
2023/01/17 03:04:29;;;;;;;8.80;8.30;;;2.90;99.90;;;;;;4959352;28;20203;-81
2023/01/17 03:07:01;;;;;;;8.87;8.37;;;2.90;99.90;;;;;;4961051;28;20243;-79
2023/01/17 03:09:30;;;;;;;9.00;8.50;;;2.90;99.90;;;;;;4958007;28;20207;-79
2023/01/17 03:11:58;;;;;;;9.30;8.80;;;2.90;99.90;;;;;;4937001;29;20451;-77
2023/01/17 03:14:24;;;;;;;9.00;8.50;;;2.90;99.90;;;;;;4939324;29;20208;-77
2023/01/17 03:16:53;;;;;;;8.83;8.33;;;2.90;99.90;;;;;;4927389;29;20233;-77
2023/01/17 03:19:20;;;;;;;9.00;8.50;;;2.90;99.90;;;;;;4928354;29;20203;-77
2023/01/17 03:21:48;;;;;;;8.83;8.33;;;2.90;99.90;;;;;;4944187;29;20654;-77
2023/01/17 03:24:15;;;;;;;9.27;8.70;;;2.90;99.90;;;;;;4929813;29;20744;-79
2023/01/17 03:26:43;;;;;;;9.30;8.80;;;3.00;99.90;;;;;;4931267;29;20614;-79
2023/01/17 03:29:10;;;;;;;9.97;9.20;;;3.00;99.90;;;;;;4928596;29;20571;-77
2023/01/17 03:31:37;;;;;;;9.30;8.80;;;3.00;99.90;;;;;;4930002;29;20246;-77
2023/01/17 03:34:05;;;;;;;9.07;8.57;;;3.00;99.90;;;;;;4932610;29;20199;-77
2023/01/17 03:36:32;;;;;;;9.50;8.90;;;3.00;99.90;;;;;;4928563;29;20268;-77
2023/01/17 03:38:59;;;;;;;9.00;8.50;;;3.00;99.90;;;;;;4930078;29;20196;-77
2023/01/17 03:41:25;;;;;;;9.20;8.70;;;3.00;99.90;;;;;;4917883;29;20287;-80
2023/01/17 03:43:52;;;;;;;9.50;8.90;;;2.90;99.90;;;;;;4942514;29;20630;-77
2023/01/17 03:46:21;;;;;;;9.27;8.77;;;2.90;99.90;;;;;;4929303;29;20207;-77
2023/01/17 03:48:49;;;;;;;9.83;9.23;;;3.00;99.90;;;;;;4923372;29;20235;-77
2023/01/17 03:51:17;;;;;;;9.00;8.50;;;3.00;99.90;;;;;;4939599;29;20219;-80
2023/01/17 03:53:45;;;;;;;9.00;8.50;;;3.00;99.90;;;;;;4922456;29;20275;-80
2023/01/17 03:56:12;;;;;;;9.27;8.77;;;3.00;99.90;;;;;;4934370;29;20208;-80
2023/01/17 03:58:39;;;;;;;9.17;8.67;;;3.00;99.90;;;;;;4931077;29;20226;-78
2023/01/17 04:01:06;;;;;;;10.30;9.70;;;3.00;99.90;;;;;;4930807;29;20909;-80
2023/01/17 04:03:33;;;;;;;9.60;9.00;;;3.00;99.90;;;;;;4932190;29;20204;-79
2023/01/17 04:05:59;;;;;;;9.30;8.77;;;3.00;99.90;;;;;;4937281;29;20192;-79
2023/01/17 04:08:28;;;;;;;9.80;9.20;;;3.00;99.90;;;;;;4936473;29;20200;-80
2023/01/17 04:10:55;;;;;;;9.77;9.17;;;3.00;99.90;;;;;;4936288;29;20270;-78
2023/01/17 04:13:21;;;;;;;9.50;8.87;;;3.00;99.90;;;;;;4936271;29;20286;-78
2023/01/17 04:15:50;;;;;;;9.90;9.20;;;3.00;99.90;;;;;;4936399;29;20928;-82
2023/01/17 04:18:19;;;;;;;9.87;9.27;;;3.00;99.90;;;;;;4935533;29;20215;-81
2023/01/17 04:20:46;;;;;;;9.80;9.30;;;3.00;99.90;;;;;;4946174;29;20223;-80
2023/01/17 04:23:13;;;;;;;9.67;9.17;;;3.00;99.90;;;;;;4935354;29;20641;-82
2023/01/17 04:25:41;;;;;;;9.60;9.07;;;2.90;99.90;;;;;;4927016;29;20199;-82
2023/01/17 04:28:08;;;;;;;9.40;8.90;;;3.00;99.90;;;;;;4927217;29;20203;-82
2023/01/17 04:30:35;;;;;;;9.33;8.83;;;2.90;99.90;;;;;;4922136;29;20683;-82
2023/01/17 04:33:02;;;;;;;9.13;8.63;;;2.90;99.90;;;;;;4918981;29;20227;-82
2023/01/17 04:35:30;;;;;;;9.20;8.70;;;2.90;99.90;;;;;;4928258;29;20496;-81
2023/01/17 04:37:57;;;;;;;10.10;9.40;;;2.90;99.90;;;;;;4922904;29;20255;-81
2023/01/17 04:40:23;;;;;;;9.70;9.10;;;2.90;99.90;;;;;;4940411;29;20254;-81
2023/01/17 04:42:53;;;;;;;10.07;9.37;;;2.90;99.90;;;;;;4925968;29;20231;-81
2023/01/17 04:45:19;;;;;;;10.67;9.97;;;2.90;99.90;;;;;;4929079;29;20219;-82
2023/01/17 04:47:46;;;;;;;10.07;9.47;;;3.00;99.90;;;;;;4933769;29;20226;-81
2023/01/17 04:50:13;;;;;;;9.83;9.23;;;3.00;99.90;;;;;;4917954;29;20212;-81
2023/01/17 04:52:40;;;;;;;9.57;9.00;;;3.00;99.90;;;;;;4929105;29;20211;-79
2023/01/17 04:55:08;;;;;;;9.57;9.07;;;3.00;99.90;;;;;;4927020;29;20200;-79
2023/01/17 04:57:35;;;;;;;9.63;9.13;;;3.00;99.90;;;;;;4923693;29;20251;-79
2023/01/17 05:00:04;;;;;;;9.70;9.20;;;3.10;99.90;;;;;;4933384;29;20200;-79
2023/01/17 05:02:31;;;;;;;9.50;9.00;;;3.00;99.90;;;;;;4926203;29;20266;-79
2023/01/17 05:04:57;;;;;;;9.87;9.17;;;3.00;99.90;;;;;;4929080;29;20207;-79
2023/01/17 05:07:24;;;;;;;9.57;9.07;;;3.00;99.90;;;;;;4928917;29;20664;-79
2023/01/17 05:09:51;;;;;;;10.10;9.50;;;3.00;99.90;;;;;;4928442;29;20196;-79
2023/01/17 05:12:18;;;;;;;10.30;9.70;;;3.00;99.90;;;;;;4934339;29;20247;-79
2023/01/17 05:14:44;;;;;;;9.70;9.20;;;3.00;99.90;;;;;;4922149;29;20207;-79
2023/01/17 05:17:13;;;;;;;10.03;9.43;;;3.00;99.90;;;;;;4926672;29;20263;-79
2023/01/17 05:19:39;;;;;;;9.90;9.30;;;3.00;99.90;;;;;;4922129;29;20271;-79
2023/01/17 05:22:13;;;;;;;10.13;9.53;;;3.00;99.90;;;;;;4939562;29;20807;-79
2023/01/17 05:24:41;;;;;;;9.57;9.07;;;2.90;99.90;;;;;;4921490;29;20208;-79
2023/01/17 05:27:07;;;;;;;9.50;9.00;;;3.00;99.90;;;;;;4921905;29;20718;-79
2023/01/17 05:29:34;;;;;;;10.10;9.30;;;3.00;99.90;;;;;;4927924;29;20203;-79
2023/01/17 05:32:01;;;;;;;9.90;9.30;;;3.00;99.90;;;;;;4943551;29;20231;-79
2023/01/17 05:34:29;;;;;;;9.90;9.30;;;3.00;99.90;;;;;;4940086;29;20207;-78
2023/01/17 05:36:56;;;;;;;9.97;9.37;;;2.90;99.90;;;;;;4928149;29;20229;-80
2023/01/17 05:39:25;;;;;;;10.40;9.80;;;2.90;99.90;;;;;;4924777;29;20672;-78
2023/01/17 05:41:51;;;;;;;10.10;9.50;;;2.90;99.90;;;;;;4920940;29;20703;-79
2023/01/17 05:44:18;;;;;;;9.50;8.90;;;3.00;99.90;;;;;;4923057;29;20211;-79
2023/01/17 05:46:45;;;;;;;9.30;8.70;;;2.90;99.90;;;;;;4925107;29;20200;-78
2023/01/17 05:49:12;;;;;;;10.00;9.40;;;2.90;99.90;;;;;;4923962;29;20208;-80
2023/01/17 05:51:40;;;;;;;9.63;9.03;;;2.90;99.90;;;;;;4934799;29;20239;-79
2023/01/17 05:54:07;;;;;;;10.10;9.30;;;3.00;99.90;;;;;;4928198;29;20442;-79
2023/01/17 05:56:34;;;;;;;9.93;9.33;;;2.90;99.90;;;;;;4920388;29;20258;-78
2023/01/17 05:59:01;;;;;;;10.30;9.70;;;2.90;99.90;;;;;;4919153;29;20200;-79
2023/01/17 06:01:27;;;;;;;10.60;9.90;;;2.90;99.90;;;;;;4945871;28;20297;-79
2023/01/17 06:03:54;;;;;;;9.73;9.20;;;2.90;99.90;;;;;;4928124;29;20256;-79
2023/01/17 06:06:21;;;;;;;10.10;9.50;;;2.90;99.90;;;;;;4925979;29;20203;-79
2023/01/17 06:08:49;;;;;;;10.17;9.57;;;2.80;99.90;;;;;;4942889;29;20611;-79
2023/01/17 06:11:17;;;;;;;10.03;9.43;;;2.80;99.90;;;;;;4916346;29;20671;-79
2023/01/17 06:13:44;;;;;;;10.20;9.60;;;2.80;99.90;;;;;;4924680;29;20278;-79
2023/01/17 06:16:11;;;;;;;11.27;10.47;;;2.70;99.90;;;;;;4931689;29;20660;-78
2023/01/17 06:18:37;;;;;;;11.03;10.23;;;2.70;99.90;;;;;;4926407;29;20200;-78
2023/01/17 06:21:04;;;;;;;11.40;10.50;;;2.80;99.90;;;;;;4926995;29;20215;-78
2023/01/17 06:23:31;;;;;;;10.33;9.63;;;2.70;99.90;;;;;;4916178;29;20224;-79
2023/01/17 06:26:02;;;;;;;10.47;9.80;;;2.60;99.90;;;;;;4929136;29;20259;-79
2023/01/17 06:28:29;;;;;;;10.70;10.00;;;2.60;99.90;;;;;;4942705;28;20205;-79
2023/01/17 06:30:56;;;;;;;10.70;10.07;;;2.60;99.90;;;;;;4926562;29;20700;-79
2023/01/17 06:33:23;;;;;;;10.40;9.80;;;2.50;99.90;;;;;;4948948;29;20207;-78
2023/01/17 06:35:51;;;;;;;11.23;10.43;;;2.50;99.90;;;;;;4935546;29;20220;-78
2023/01/17 06:38:18;;;;;;;10.57;9.77;;;2.50;99.90;;;;;;4932883;29;20290;-79
2023/01/17 06:40:44;;;;;;;10.73;10.03;;;2.50;99.90;;;;;;4931202;29;20219;-79
2023/01/17 06:43:12;;;;;;;10.80;10.20;;;2.60;99.90;;;;;;4934376;29;20211;-78
2023/01/17 06:45:39;;;;;;;10.73;10.13;;;2.50;99.90;;;;;;4933371;29;20264;-79
2023/01/17 06:48:06;;;;;;;10.70;10.07;;;2.40;99.90;;;;;;4943869;29;20230;-81
2023/01/17 06:50:34;;;;;;;10.50;9.90;;;2.50;99.90;;;;;;4938332;29;20208;-80
2023/01/17 06:53:02;;;;;;;10.60;10.00;;;2.50;99.90;;;;;;4924732;29;20767;-79
2023/01/17 06:55:32;;;;;;;12.03;11.13;;;2.50;99.90;;;;;;4931284;29;20191;-79
2023/01/17 06:58:01;;;;;;;11.80;11.00;;;2.50;99.90;;;;;;4930663;29;20435;-80
2023/01/17 07:00:33;;;;;;;12.20;11.30;;;2.60;99.90;;;;;;4928972;29;20199;-77
2023/01/17 07:03:00;;;;;;;12.93;11.70;;;2.60;99.90;;;;;;4927558;29;20571;-78
2023/01/17 07:05:27;;;;;;;12.53;11.47;;;2.60;99.90;;;;;;4928164;29;20199;-77
2023/01/17 07:07:54;;;;;;;12.67;11.60;;;2.60;99.90;;;;;;4944284;29;20592;-78
2023/01/17 07:10:22;;;;;;;11.70;10.50;;;2.60;99.90;;;;;;4935607;29;20262;-80
2023/01/17 07:12:50;;;;;;;12.37;11.30;;;2.50;99.90;;;;;;4944975;29;20203;-79
2023/01/17 07:15:17;;;;;;;11.87;11.07;;;2.40;99.90;;;;;;4928450;29;20783;-79
2023/01/17 07:17:45;;;;;;;11.50;10.70;;;2.30;99.90;;;;;;4928790;29;20200;-78
2023/01/17 07:20:12;;;;;;;10.60;9.90;;;2.30;99.90;;;;;;4936121;29;21042;-79
2023/01/17 07:22:39;;;;;;;11.60;10.80;;;2.30;99.90;;;;;;4933043;29;20534;-79
2023/01/17 07:25:06;;;;;;;10.60;9.90;;;2.20;99.90;;;;;;4936966;29;20462;-79
2023/01/17 07:27:33;;;;;;;11.23;10.43;;;2.10;99.90;;;;;;4929641;29;20219;-79
2023/01/17 07:30:00;;;;;;;11.20;10.50;;;2.20;99.90;;;;;;4944871;28;20522;-79
2023/01/17 07:32:27;;;;;;;11.33;10.63;;;2.10;99.90;;;;;;4928338;29;20289;-79
2023/01/17 07:34:56;;;;;;;10.93;10.23;;;2.10;99.90;;;;;;4930089;29;20260;-79
2023/01/17 07:37:25;;;;;;;12.00;11.20;;;2.00;99.90;;;;;;4924907;29;20455;-79
2023/01/17 07:39:52;;;;;;;11.53;10.83;;;1.90;99.90;;;;;;4925854;29;20466;-79
2023/01/17 07:42:19;;;;;;;11.40;10.70;;;1.90;99.90;;;;;;4928359;29;20280;-79
2023/01/17 07:44:46;;;;;;;11.67;10.87;;;1.90;99.90;;;;;;4929798;29;20204;-79
2023/01/17 07:47:12;;;;;;;11.57;10.87;;;1.90;99.90;;;;;;4944230;28;20200;-79
2023/01/17 07:49:39;;;;;;;11.70;10.90;;;2.00;99.90;;;;;;4931304;29;20290;-81
2023/01/17 07:52:08;;;;;;;11.80;11.00;;;2.00;99.90;;;;;;4937175;29;20226;-81
2023/01/17 07:54:35;;;;;;;11.67;10.97;;;2.20;99.90;;;;;;4927706;29;20191;-80
2023/01/17 07:57:01;;;;;;;11.57;10.87;;;2.20;99.90;;;;;;4939527;29;20227;-81
2023/01/17 07:59:28;;;;;;;12.00;11.17;;;2.30;99.90;;;;;;4924479;29;20207;-81
2023/01/17 08:01:55;;;;;;;11.67;10.87;;;2.30;99.90;;;;;;4938031;29;20259;-80
2023/01/17 08:04:26;;;;;;;11.93;11.03;;;2.40;99.90;;;;;;4937221;29;20207;-80
2023/01/17 08:06:53;;;;;;;11.53;10.73;;;2.40;99.90;;;;;;4939520;29;20271;-80
2023/01/17 08:09:22;;;;;;;11.90;11.00;;;2.50;99.90;;;;;;4926731;29;20203;-77
2023/01/17 08:11:48;;;;;;;11.77;10.77;;;2.60;99.90;;;;;;4922484;29;20278;-80
2023/01/17 08:14:15;;;;;;;11.20;10.40;;;2.60;99.90;;;;;;4933604;29;20267;-79
2023/01/17 08:16:42;;;;;;;11.20;10.27;;;2.80;99.90;;;;;;4949479;28;20207;-81
2023/01/17 08:19:10;;;;;;;11.10;10.30;;;2.90;99.90;;;;;;4934647;29;20248;-81
2023/01/17 08:21:37;;;;;;;11.70;10.80;;;3.00;99.90;;;;;;4949053;29;20219;-81
2023/01/17 08:24:04;;;;;;;12.23;11.33;;;3.10;99.90;;;;;;4930852;29;20247;-81
2023/01/17 08:26:32;;;;;;;11.90;10.90;;;3.10;99.90;;;;;;4929544;29;20233;-81
2023/01/17 08:29:00;;;;;;;11.90;11.10;;;3.10;99.90;;;;;;4943474;29;20620;-80
2023/01/17 08:31:28;;;;;;;11.17;10.47;;;3.10;99.90;;;;;;4945534;28;20823;-80
2023/01/17 08:33:56;;;;;;;11.87;10.67;;;3.30;99.90;;;;;;4934027;29;20195;-81
2023/01/17 08:36:25;;;;;;;12.23;11.30;;;3.50;99.90;;;;;;4934908;29;20195;-81
2023/01/17 08:38:52;;;;;;;12.83;11.83;;;3.70;99.90;;;;;;4933974;29;20208;-79
2023/01/17 08:41:19;;;;;;;12.37;11.47;;;3.90;99.90;;;;;;4945939;28;20238;-77
2023/01/17 08:43:49;;;;;;;12.77;11.83;;;4.20;99.90;;;;;;4940953;29;20226;-78
2023/01/17 08:46:17;;;;;;;12.93;12.00;;;4.40;99.90;;;;;;4928006;29;20230;-79
2023/01/17 08:48:44;;;;;;;13.73;12.53;;;4.60;99.90;;;;;;4943609;29;20251;-78
2023/01/17 08:51:11;;;;;;;13.17;12.10;;;4.80;99.90;;;;;;4922155;29;20217;-77
2023/01/17 08:53:39;;;;;;;13.43;12.37;;;4.90;99.90;;;;;;4943807;29;20668;-79
2023/01/17 08:56:06;;;;;;;13.83;12.73;;;5.00;99.90;;;;;;4936030;29;20634;-77
2023/01/17 08:58:33;;;;;;;13.30;12.30;;;5.10;99.90;;;;;;4924690;29;20260;-79
2023/01/17 09:01:03;;;;;;;12.80;11.90;;;5.00;99.90;;;;;;4924677;29;20288;-79
2023/01/17 09:03:30;;;;;;;13.50;12.40;;;5.00;99.90;;;;;;4929430;29;20225;-80
2023/01/17 09:06:01;;;;;;;13.90;12.60;;;4.90;99.90;;;;;;4931470;29;20227;-79
2023/01/17 09:08:28;;;;;;;11.93;10.83;;;4.70;99.90;;;;;;4936615;29;20210;-78
2023/01/17 09:10:56;;;;;;;13.20;12.10;;;4.60;99.90;;;;;;4927831;29;20234;-77
2023/01/17 09:13:23;;;;;;;13.00;11.93;;;4.50;99.90;;;;;;4926135;29;20991;-78
2023/01/17 09:15:50;;;;;;;12.90;11.93;;;4.40;99.90;;;;;;4924895;29;20204;-77
2023/01/17 09:18:18;;;;;;;12.00;11.10;;;4.40;99.90;;;;;;4941173;28;20291;-77
2023/01/17 09:20:45;;;;;;;12.40;11.50;;;4.40;99.90;;;;;;4921756;29;20567;-77
2023/01/17 09:23:11;;;;;;;11.90;11.10;;;4.30;99.90;;;;;;4926821;29;20211;-77
2023/01/17 09:25:43;;;;;;;12.30;11.30;;;4.30;99.90;;;;;;4915972;29;20256;-77
2023/01/17 09:28:10;;;;;;;11.67;10.87;;;4.20;99.90;;;;;;4933264;29;20196;-76
2023/01/17 09:30:37;;;;;;;11.70;10.90;;;4.20;99.90;;;;;;4929770;29;20205;-77
2023/01/17 09:33:04;;;;;;;11.53;10.83;;;4.20;99.90;;;;;;4920437;29;20201;-77
2023/01/17 09:35:33;;;;;;;12.10;11.10;;;4.10;99.90;;;;;;4930349;29;20686;-77
2023/01/17 09:38:00;;;;;;;11.60;10.80;;;4.20;99.90;;;;;;4924973;29;20223;-77
2023/01/17 09:40:26;;;;;;;10.73;10.03;;;4.20;99.90;;;;;;4926789;29;20676;-77
2023/01/17 09:43:00;;;;;;;10.40;9.73;;;4.20;99.90;;;;;;4922378;29;20775;-76
2023/01/17 09:45:30;;;;;;;10.20;9.50;;;4.10;99.90;;;;;;4931598;29;20198;-77
2023/01/17 09:47:59;;;;;;;10.33;9.63;;;4.20;99.90;;;;;;4927415;29;20203;-77
2023/01/17 09:50:31;;;;;;;10.10;9.50;;;4.20;99.90;;;;;;4919968;29;20305;-77
2023/01/17 09:53:03;;;;;;;9.87;9.23;;;4.30;99.90;;;;;;4922531;29;20220;-78
2023/01/17 09:55:37;;;;;;;9.83;9.13;;;4.30;99.90;;;;;;4927465;29;20207;-78
2023/01/17 09:58:09;;;;;;;9.87;9.23;;;4.20;99.90;;;;;;4929048;29;20706;-78
2023/01/17 10:00:50;;;;;;;9.77;9.07;;;4.20;99.90;;;;;;4919362;29;20273;-78
2023/01/17 10:03:30;;;;;;;9.60;8.90;;;4.20;99.90;;;;;;4940969;29;20210;-79
2023/01/17 10:06:16;;;;;;;9.20;8.70;;;4.30;99.90;;;;;;4918934;29;20259;-78
2023/01/17 10:09:18;;;;;;;9.30;8.80;;;4.30;99.90;;;;;;4925036;29;20278;-79
2023/01/17 10:11:55;;;;;;;8.97;8.47;;;4.30;99.90;;;;;;4924389;29;20219;-78
2023/01/17 10:14:50;;;;;;;9.33;8.83;;;4.40;99.90;;;;;;4920304;29;21449;-78
2023/01/17 10:17:29;;;;;;;9.20;8.70;;;4.40;99.90;;;;;;4922959;29;20219;-78
2023/01/17 10:20:09;;;;;;;9.60;8.80;;;4.50;99.90;;;;;;4922104;29;20203;-77
2023/01/17 10:22:55;;;;;;;9.30;8.80;;;4.40;99.90;;;;;;4927869;29;20225;-77
2023/01/17 10:25:34;;;;;;;9.30;8.80;;;4.50;99.90;;;;;;4925329;29;20211;-78
2023/01/17 10:28:06;;;;;;;9.50;8.90;;;4.50;99.90;;;;;;4923260;29;20271;-79
2023/01/17 10:30:36;;;;;;;9.00;8.50;;;4.50;99.90;;;;;;4927873;29;20633;-78
2023/01/17 10:33:11;;;;;;;9.50;8.87;;;4.60;99.90;;;;;;4928535;29;20207;-77
2023/01/17 10:35:48;;;;;;;10.03;9.23;;;4.50;99.90;;;;;;4922788;29;20637;-78
2023/01/17 10:38:16;;;;;;;9.80;9.20;;;4.50;99.90;;;;;;4944718;29;20355;-77
2023/01/17 10:40:50;;;;;;;9.50;8.90;;;4.50;99.90;;;;;;4922302;29;20592;-77
2023/01/17 10:43:24;;;;;;;10.07;9.47;;;4.50;99.90;;;;;;4945718;29;20645;-79
2023/01/17 10:45:53;;;;;;;9.47;8.97;;;4.50;99.90;;;;;;4932155;29;20206;-77
2023/01/17 10:48:33;;;;;;;9.97;9.37;;;4.40;99.90;;;;;;4927427;29;20224;-79
2023/01/17 10:51:16;;;;;;;9.60;9.00;;;4.40;99.90;;;;;;4928392;29;20869;-81
2023/01/17 10:53:56;;;;;;;10.20;9.50;;;4.30;99.90;;;;;;4929638;29;20248;-80
2023/01/17 10:56:28;;;;;;;9.43;8.93;;;4.40;99.90;;;;;;4931806;29;20203;-80
2023/01/17 10:59:09;;;;;;;9.67;9.07;;;4.30;99.90;;;;;;4935773;29;20200;-82
2023/01/17 11:01:36;;;;;;;9.90;9.30;;;4.30;99.90;;;;;;4941710;29;20227;-82
2023/01/17 11:04:08;;;;;;;9.93;9.30;;;4.40;99.90;;;;;;4937811;29;20283;-83
2023/01/17 11:06:37;;;;;;;9.63;8.97;;;4.40;99.90;;;;;;4935805;29;20211;-83
2023/01/17 11:09:09;;;;;;;9.90;9.30;;;4.50;99.90;;;;;;4926001;29;20195;-80
2023/01/17 11:11:46;;;;;;;9.33;8.83;;;4.50;99.90;;;;;;4927871;29;20227;-83
2023/01/17 11:14:18;;;;;;;9.37;8.73;;;4.60;99.90;;;;;;4942537;29;20219;-81
2023/01/17 11:16:45;;;;;;;9.40;8.80;;;4.70;99.90;;;;;;4934752;29;20275;-81
2023/01/17 11:19:21;;;;;;;8.97;8.53;;;4.70;99.90;;;;;;4935796;29;20283;-82
2023/01/17 11:21:53;;;;;;;9.40;8.80;;;4.80;99.90;;;;;;4929756;29;20222;-81
2023/01/17 11:24:27;;;;;;;9.40;8.80;;;4.80;99.90;;;;;;4931647;29;20228;-83
2023/01/17 11:26:55;;;;;;;9.30;8.70;;;4.80;99.90;;;;;;4932212;29;20259;-79
2023/01/17 11:29:33;;;;;;;9.60;9.00;;;4.90;99.90;;;;;;4920779;29;20226;-79
2023/01/17 11:32:29;;;;;;;9.40;8.80;;;4.80;99.90;;;;;;4929072;29;20720;-80
2023/01/17 11:35:18;;;;;;;9.40;8.90;;;4.80;99.90;;;;;;4942903;29;20199;-80
2023/01/17 11:37:58;;;;;;;9.60;9.10;;;4.80;99.90;;;;;;4929457;29;20200;-81
2023/01/17 11:40:29;;;;;;;11.43;9.03;;;4.70;99.90;;;;;;4929658;29;20202;-83
2023/01/17 11:43:17;;;;;;;9.23;8.73;;;4.60;99.90;;;;;;4932367;29;20196;-80
2023/01/17 11:45:45;;;;;;;9.23;8.57;;;4.50;99.90;;;;;;4930202;29;20216;-82
2023/01/17 11:48:16;;;;;;;9.70;9.10;;;4.50;99.90;;;;;;4945049;29;20219;-80
2023/01/17 11:50:47;;;;;;;9.40;8.77;;;4.50;99.90;;;;;;4932841;29;20571;-79
2023/01/17 11:53:23;;;;;;;9.57;8.97;;;4.50;99.90;;;;;;4921920;29;20210;-81
2023/01/17 11:56:01;;;;;;;9.80;9.10;;;4.50;99.90;;;;;;4941609;29;20220;-81
2023/01/17 11:58:32;;;;;;;9.67;9.07;;;4.60;99.90;;;;;;4931786;29;20203;-82
2023/01/17 12:01:04;;;;;;;9.20;8.70;;;4.60;99.90;;;;;;4932393;29;20667;-80
2023/01/17 12:03:50;;;;;;;9.80;9.00;;;4.60;99.90;;;;;;4929363;29;20215;-81
2023/01/17 12:06:24;;;;;;;9.20;8.70;;;4.60;99.90;;;;;;4927491;29;20208;-80
2023/01/17 12:09:03;;;;;;;9.53;8.93;;;4.60;99.90;;;;;;4938483;29;20552;-81
2023/01/17 12:13:59;;;;;;;9.30;8.80;;;4.70;99.90;;;;;;4931331;29;20642;-81
2023/01/17 12:14:38;;;;;;;9.60;9.00;;;4.70;99.90;;;;;;4921113;29;20196;-81
2023/01/17 12:17:18;;;;;;;9.27;8.77;;;4.80;99.90;;;;;;4947726;29;20254;-81
2023/01/17 12:19:59;;;;;;;9.40;8.80;;;4.90;99.90;;;;;;4929179;29;20236;-84
2023/01/17 12:22:58;;;;;;;9.73;9.07;;;5.00;99.90;;;;;;4944967;29;20223;-80
2023/01/17 12:25:36;;;;;;;8.87;8.37;;;5.10;99.90;;;;;;4929773;29;20235;-80
2023/01/17 12:28:23;;;;;;;9.43;8.83;;;5.10;99.90;;;;;;4925516;29;20210;-81
2023/01/17 12:31:14;;;;;;;9.20;8.70;;;5.10;99.90;;;;;;4940922;29;20283;-80
2023/01/17 12:33:50;;;;;;;9.83;9.23;;;5.10;99.90;;;;;;4924751;29;20200;-82
2023/01/17 12:36:32;;;;;;;9.40;8.90;;;5.00;99.90;;;;;;4932740;29;20616;-81
2023/01/17 12:39:02;;;;;;;8.97;8.47;;;5.00;99.90;;;;;;4930043;29;20206;-82
2023/01/17 12:41:34;;;;;;;9.20;8.70;;;4.80;99.90;;;;;;4942005;29;20231;-82
2023/01/17 12:44:01;;;;;;;8.83;8.33;;;4.90;99.90;;;;;;4932338;29;20305;-82
2023/01/17 12:46:33;;;;;;;9.03;8.47;;;4.90;99.90;;;;;;4929392;29;20230;-81
2023/01/17 12:49:08;;;;;;;9.27;8.60;;;4.80;99.90;;;;;;4930923;29;20279;-82
2023/01/17 12:51:39;;;;;;;9.30;8.80;;;4.90;99.90;;;;;;4927053;29;20719;-80
2023/01/17 12:54:14;;;;;;;9.63;8.80;;;5.00;99.90;;;;;;4945429;29;20191;-82
2023/01/17 12:56:45;;;;;;;9.30;8.80;;;5.10;99.90;;;;;;4946024;29;20207;-82
2023/01/17 12:59:16;;;;;;;9.00;8.50;;;5.10;99.90;;;;;;4920787;29;20631;-82
2023/01/17 13:01:56;;;;;;;8.93;8.43;;;5.20;99.90;;;;;;4930243;29;20232;-82
2023/01/17 13:04:27;;;;;;;9.07;8.47;;;5.20;99.90;;;;;;4948676;29;20287;-83
2023/01/17 13:07:06;;;;;;;9.30;8.70;;;5.20;99.90;;;;;;4930960;29;20206;-81
2023/01/17 13:09:39;;;;;;;8.80;8.30;;;5.20;99.90;;;;;;4926062;29;20210;-82
2023/01/17 13:12:12;;;;;;;9.30;8.70;;;5.20;99.90;;;;;;4926623;29;20280;-81
2023/01/17 13:14:38;;;;;;;9.40;8.70;;;5.20;99.90;;;;;;4924474;29;20237;-81
2023/01/17 13:17:23;;;;;;;8.90;8.40;;;5.20;99.90;;;;;;4940639;29;20201;-81
2023/01/17 13:19:57;;;;;;;9.30;8.70;;;5.20;99.90;;;;;;4921864;29;20216;-82
2023/01/17 13:22:25;;;;;;;9.70;9.00;;;5.20;99.90;;;;;;4939281;29;20227;-82
2023/01/17 13:25:03;;;;;;;9.30;8.70;;;5.10;99.90;;;;;;4932803;29;20216;-83
2023/01/17 13:27:46;;;;;;;9.00;8.43;;;5.10;99.90;;;;;;4930383;29;20204;-82
2023/01/17 13:30:32;;;;;;;8.93;8.43;;;5.20;99.90;;;;;;4942904;29;20207;-80
2023/01/17 13:33:18;;;;;;;9.43;8.83;;;5.20;99.90;;;;;;4928137;29;20734;-81
2023/01/17 13:35:56;;;;;;;9.43;8.77;;;5.20;99.90;;;;;;4920620;29;20312;-80
2023/01/17 13:38:37;;;;;;;9.10;8.60;;;5.10;99.90;;;;;;4936317;29;20618;-80
2023/01/17 13:41:15;;;;;;;9.17;8.57;;;5.20;99.90;;;;;;4944296;28;20251;-80
2023/01/17 13:44:20;;;;;;;8.60;8.10;;;5.10;99.90;;;;;;4928367;29;20262;-79
2023/01/17 13:46:51;;;;;;;8.93;8.30;;;5.20;99.90;;;;;;4943918;29;20660;-80
2023/01/17 13:49:33;;;;;;;8.90;8.37;;;5.30;99.90;;;;;;4942376;29;20254;-80
2023/01/17 13:52:09;;;;;;;8.70;8.20;;;5.20;99.90;;;;;;4931299;29;20218;-80
2023/01/17 13:54:44;;;;;;;9.10;8.50;;;5.10;99.90;;;;;;4928849;29;20227;-83
2023/01/17 13:57:40;;;;;;;8.80;8.10;;;5.00;99.90;;;;;;4943414;29;20207;-79
2023/01/17 14:00:49;;;;;;;8.57;7.97;;;5.00;99.90;;;;;;4928111;29;20613;-79
2023/01/17 14:03:54;;;;;;;8.93;8.23;;;5.00;99.90;;;;;;4924949;29;20681;-81
2023/01/17 14:06:39;;;;;;;8.90;8.40;;;4.90;99.90;;;;;;4927135;29;20675;-81
2023/01/17 14:09:15;;;;;;;9.20;8.50;;;4.90;99.90;;;;;;4928698;29;20259;-80
2023/01/17 14:11:58;;;;;;;8.87;8.27;;;4.90;99.90;;;;;;4924291;29;20222;-82
2023/01/17 14:14:59;;;;;;;9.13;8.47;;;4.80;99.90;;;;;;4925398;29;20543;-81
2023/01/17 14:17:57;;;;;;;9.20;8.53;;;4.70;99.90;;;;;;4933286;29;20206;-80
2023/01/17 14:20:50;;;;;;;9.10;8.40;;;4.70;99.90;;;;;;4934870;29;20210;-83
2023/01/17 14:24:02;;;;;;;8.93;8.20;;;4.70;99.90;;;;;;4931592;29;20694;-83
2023/01/17 14:26:41;;;;;;;9.23;8.53;;;4.70;99.90;;;;;;4927620;29;20203;-81
2023/01/17 14:29:45;;;;;;;9.33;8.73;;;4.70;99.90;;;;;;4929733;29;20204;-77
2023/01/17 14:32:14;;;;;;;9.20;8.60;;;4.60;99.90;;;;;;4917740;29;20282;-78
2023/01/17 14:34:42;;;;;;;9.80;9.03;;;4.50;99.90;;;;;;4940629;29;20723;-78
2023/01/17 14:37:20;;;;;;;9.27;8.57;;;4.40;99.90;;;;;;4925127;29;20288;-78
2023/01/17 14:39:50;;;;;;;9.37;8.70;;;4.40;99.90;;;;;;4927593;29;20200;-78
2023/01/17 14:42:19;;;;;;;9.50;8.80;;;4.40;99.90;;;;;;4932777;29;20715;-83
2023/01/17 14:44:48;;;;;;;9.70;9.00;;;4.40;99.90;;;;;;4937070;29;20286;-80
2023/01/17 14:47:16;;;;;;;9.77;8.97;;;4.20;99.90;;;;;;4928603;29;20263;-79
2023/01/17 14:49:43;;;;;;;9.70;9.10;;;4.20;99.90;;;;;;4936981;29;20210;-78
2023/01/17 14:52:15;;;;;;;9.53;8.83;;;4.20;99.90;;;;;;4945722;29;20243;-79
2023/01/17 14:54:49;;;;;;;10.10;9.30;;;4.20;99.90;;;;;;4927217;29;20636;-80
2023/01/17 14:57:25;;;;;;;9.90;9.10;;;4.20;99.90;;;;;;4933436;29;20203;-80
2023/01/17 15:00:08;;;;;;;9.67;8.93;;;4.10;99.90;;;;;;4920419;29;20631;-79
2023/01/17 15:02:35;;;;;;;9.87;9.17;;;4.10;99.90;;;;;;4925753;29;20227;-80
2023/01/17 15:05:01;;;;;;;9.43;8.73;;;4.10;99.90;;;;;;4925618;29;20604;-79
2023/01/17 15:07:31;;;;;;;9.70;9.00;;;4.10;99.90;;;;;;4916494;29;20220;-78
2023/01/17 15:09:59;;;;;;;9.63;8.93;;;4.10;99.90;;;;;;4934099;29;20296;-81
2023/01/17 15:12:26;;;;;;;10.20;9.40;;;4.10;99.90;;;;;;4920920;29;20720;-80
2023/01/17 15:14:57;;;;;;;9.63;8.83;;;4.00;99.90;;;;;;4930460;29;20204;-84
2023/01/17 15:17:24;;;;;;;10.10;9.13;;;4.00;99.90;;;;;;4926260;29;20212;-79
2023/01/17 15:19:56;;;;;;;9.70;9.07;;;4.00;99.90;;;;;;4940795;29;20408;-78
2023/01/17 15:22:25;;;;;;;9.90;9.10;;;4.00;99.90;;;;;;4925931;29;20254;-77
2023/01/17 15:24:53;;;;;;;9.43;8.83;;;4.00;99.90;;;;;;4949149;29;20217;-81
2023/01/17 15:27:23;;;;;;;10.60;9.60;;;4.00;99.90;;;;;;4920743;29;20220;-83
2023/01/17 15:29:50;;;;;;;10.60;9.90;;;4.00;99.90;;;;;;4947087;29;20234;-82
2023/01/17 15:32:21;;;;;;;9.40;8.80;;;4.00;99.90;;;;;;4926671;29;20227;-80
2023/01/17 15:34:49;;;;;;;9.87;9.17;;;4.00;99.90;;;;;;4934938;29;20291;-80
2023/01/17 15:37:28;;;;;;;9.60;9.00;;;4.00;99.90;;;;;;4924923;29;20231;-79
2023/01/17 15:40:05;;;;;;;10.23;9.43;;;4.00;99.90;;;;;;4922706;29;20550;-79
2023/01/17 15:42:36;;;;;;;10.40;9.70;;;3.90;99.90;;;;;;4945921;29;20227;-80
2023/01/17 15:45:05;;;;;;;9.90;9.20;;;3.90;99.90;;;;;;4948700;29;20283;-80
2023/01/17 15:47:34;;;;;;;9.80;9.13;;;4.00;99.90;;;;;;4929332;29;20208;-82
2023/01/17 15:50:22;;;;;;;10.17;9.37;;;4.00;99.90;;;;;;4924542;29;20200;-79
2023/01/17 15:52:50;;;;;;;10.57;9.67;;;4.00;99.90;;;;;;4921995;29;20218;-80
2023/01/17 15:55:22;;;;;;;10.07;9.17;;;3.90;99.90;;;;;;4936407;29;20227;-79
2023/01/17 15:57:51;;;;;;;9.93;9.03;;;3.90;99.90;;;;;;4938307;29;20751;-79
2023/01/17 16:00:22;;;;;;;10.37;9.67;;;3.90;99.90;;;;;;4937803;29;20246;-78
2023/01/17 16:02:54;;;;;;;10.30;9.50;;;4.00;99.90;;;;;;4936409;29;20648;-79
2023/01/17 16:05:37;;;;;;;10.73;9.93;;;4.00;99.90;;;;;;4938551;29;20215;-77
2023/01/17 16:08:29;;;;;;;10.37;9.47;;;4.00;99.90;;;;;;4938708;29;20667;-80
2023/01/17 16:11:01;;;;;;;9.70;9.00;;;3.90;99.90;;;;;;4936566;29;20271;-78
2023/01/17 16:13:36;;;;;;;9.40;8.70;;;4.00;99.90;;;;;;4937317;29;20224;-79
2023/01/17 16:16:12;;;;;;;9.83;9.13;;;3.90;99.90;;;;;;4926135;29;20568;-79